Black River (Missouri), Williamsville (07062575)

StateMissouriCurrentPotential (542 cfs)
RiverBlack RiverFlood - The river is flooding. Obstacles can be treacherous or deadly. The river should be avoided at this stage for casual trips and definitely for the inexperienced. Trips should be attempted only with protective gear and equipment.Flood(none)
Updated2019-10-14 2:30 (32 minutes ago)High - The river is high and potentially dangerous, especially for the young and / or inexperienced. Normal stream obstacles are sometimes difficult to navigate. Extended distances can be attempted, but canoe travel may not be advisable.High(none)
Discharge542 cfs (median: 459 cfs)Good - Conditions are ideal for a canoe or kayak. Boats typically will drag on fewer than one-quarter of riffles, if at all, and portages are unnecessary or rare. Normal float lengths can be attempted without a problem.Good(none)
Height3.49 feetLow - River is low but can still be floated. Some riffles are okay but most come with significant dragging and might need a portage. Float lengths should be reduced to accommodate low flow, dragging, and portages.Low(none)
TrendFalling (falling over 24 hours)Poor - River is too low to float comfortably. Most or all riffles will drag or must be portaged and some obstacles (such as slick shelf rock) cause undue problems. Avoid the river at this stage for casual paddling trips.Poor(none)
USGSExternal icon USGS Site for Williamsville (07062575)LocationExternal icon Google Maps

Trending Data

Plot Image
ObservationHeightDischargeMaximum
Discharge
Minimum
Discharge
Mean
Discharge
P05P10P20P25P50
(Median)
P75P80P90P95
2019-10-14 02:30 3.49 542 2620 (2010) 362 (2016) 740 363 372 380 459 710 1200 2500
2019-10-14 01:30 3.50 547 2620 (2010) 362 (2016) 740 363 372 380 459 710 1200 2500
2019-10-14 00:30 3.50 547 2620 (2010) 362 (2016) 740 363 372 380 459 710 1200 2500
2019-10-13 23:30 3.50 547 2660 (2010) 312 (2018) 717 319 388 417 457 699 867 2490
2019-10-13 22:30 3.49 542 2660 (2010) 312 (2018) 717 319 388 417 457 699 867 2490
2019-10-13 21:30 3.50 547 2660 (2010) 312 (2018) 717 319 388 417 457 699 867 2490
2019-10-13 20:30 3.50 547 2660 (2010) 312 (2018) 717 319 388 417 457 699 867 2490
2019-10-13 19:30 3.50 547 2660 (2010) 312 (2018) 717 319 388 417 457 699 867 2490
2019-10-13 18:30 3.50 547 2660 (2010) 312 (2018) 717 319 388 417 457 699 867 2490
2019-10-13 17:30 3.51 552 2660 (2010) 312 (2018) 717 319 388 417 457 699 867 2490
2019-10-13 16:30 3.50 547 2660 (2010) 312 (2018) 717 319 388 417 457 699 867 2490
2019-10-13 15:30 3.51 552 2660 (2010) 312 (2018) 717 319 388 417 457 699 867 2490
2019-10-13 14:30 3.50 547 2660 (2010) 312 (2018) 717 319 388 417 457 699 867 2490
2019-10-13 13:30 3.50 547 2660 (2010) 312 (2018) 717 319 388 417 457 699 867 2490
2019-10-13 12:30 3.50 547 2660 (2010) 312 (2018) 717 319 388 417 457 699 867 2490
2019-10-13 11:30 3.50 547 2660 (2010) 312 (2018) 717 319 388 417 457 699 867 2490
2019-10-13 10:30 3.50 547 2660 (2010) 312 (2018) 717 319 388 417 457 699 867 2490
2019-10-13 09:30 3.50 547 2660 (2010) 312 (2018) 717 319 388 417 457 699 867 2490
2019-10-13 08:30 3.50 547 2660 (2010) 312 (2018) 717 319 388 417 457 699 867 2490
2019-10-13 07:30 3.49 542 2660 (2010) 312 (2018) 717 319 388 417 457 699 867 2490
2019-10-13 06:30 3.49 542 2660 (2010) 312 (2018) 717 319 388 417 457 699 867 2490
2019-10-13 05:30 3.50 547 2660 (2010) 312 (2018) 717 319 388 417 457 699 867 2490
2019-10-13 04:30 3.50 547 2660 (2010) 312 (2018) 717 319 388 417 457 699 867 2490
2019-10-13 03:30 3.49 542 2660 (2010) 312 (2018) 717 319 388 417 457 699 867 2490
2019-10-13 02:30 3.49 542 2660 (2010) 312 (2018) 717 319 388 417 457 699 867 2490
2019-10-13 01:30 3.50 547 2660 (2010) 312 (2018) 717 319 388 417 457 699 867 2490
2019-10-13 00:30 3.50 547 2660 (2010) 312 (2018) 717 319 388 417 457 699 867 2490
2019-10-12 23:30 3.50 547 2650 (2010) 326 (2011) 668 334 406 407 450 537 569 2440
2019-10-12 22:30 3.50 547 2650 (2010) 326 (2011) 668 334 406 407 450 537 569 2440
2019-10-12 21:30 3.50 547 2650 (2010) 326 (2011) 668 334 406 407 450 537 569 2440
2019-10-12 20:30 3.50 547 2650 (2010) 326 (2011) 668 334 406 407 450 537 569 2440
2019-10-12 19:30 3.50 547 2650 (2010) 326 (2011) 668 334 406 407 450 537 569 2440
2019-10-12 18:30 3.50 547 2650 (2010) 326 (2011) 668 334 406 407 450 537 569 2440
2019-10-12 17:30 3.51 552 2650 (2010) 326 (2011) 668 334 406 407 450 537 569 2440
2019-10-12 16:30 3.50 547 2650 (2010) 326 (2011) 668 334 406 407 450 537 569 2440
2019-10-12 15:30 3.51 552 2650 (2010) 326 (2011) 668 334 406 407 450 537 569 2440
2019-10-12 14:30 3.50 547 2650 (2010) 326 (2011) 668 334 406 407 450 537 569 2440
2019-10-12 13:30 3.50 547 2650 (2010) 326 (2011) 668 334 406 407 450 537 569 2440
2019-10-12 12:30 3.50 547 2650 (2010) 326 (2011) 668 334 406 407 450 537 569 2440
2019-10-12 11:30 3.50 547 2650 (2010) 326 (2011) 668 334 406 407 450 537 569 2440
2019-10-12 10:30 3.50 547 2650 (2010) 326 (2011) 668 334 406 407 450 537 569 2440
2019-10-12 09:30 3.50 547 2650 (2010) 326 (2011) 668 334 406 407 450 537 569 2440
2019-10-12 08:30 3.50 547 2650 (2010) 326 (2011) 668 334 406 407 450 537 569 2440
2019-10-12 07:30 3.50 547 2650 (2010) 326 (2011) 668 334 406 407 450 537 569 2440
2019-10-12 06:30 3.50 547 2650 (2010) 326 (2011) 668 334 406 407 450 537 569 2440
2019-10-12 05:30 3.50 547 2650 (2010) 326 (2011) 668 334 406 407 450 537 569 2440
2019-10-12 04:30 3.50 547 2650 (2010) 326 (2011) 668 334 406 407 450 537 569 2440
2019-10-12 03:30 3.51 552 2650 (2010) 326 (2011) 668 334 406 407 450 537 569 2440
2019-10-12 02:30 3.51 552 2650 (2010) 326 (2011) 668 334 406 407 450 537 569 2440
2019-10-12 01:30 3.51 552 2650 (2010) 326 (2011) 668 334 406 407 450 537 569 2440
2019-10-12 00:30 3.51 552 2650 (2010) 326 (2011) 668 334 406 407 450 537 569 2440
2019-10-11 23:30 3.51 552 2110 (2010) 322 (2011) 613 326 377 406 435 554 573 1960
2019-10-11 22:30 3.52 557 2110 (2010) 322 (2011) 613 326 377 406 435 554 573 1960
2019-10-11 21:30 3.52 557 2110 (2010) 322 (2011) 613 326 377 406 435 554 573 1960
2019-10-11 20:30 3.52 557 2110 (2010) 322 (2011) 613 326 377 406 435 554 573 1960
2019-10-11 19:30 3.52 557 2110 (2010) 322 (2011) 613 326 377 406 435 554 573 1960
2019-10-11 18:30 3.53 562 2110 (2010) 322 (2011) 613 326 377 406 435 554 573 1960
2019-10-11 17:30 3.53 562 2110 (2010) 322 (2011) 613 326 377 406 435 554 573 1960
2019-10-11 16:30 3.53 562 2110 (2010) 322 (2011) 613 326 377 406 435 554 573 1960
2019-10-11 15:30 3.54 568 2110 (2010) 322 (2011) 613 326 377 406 435 554 573 1960
2019-10-11 14:30 3.54 568 2110 (2010) 322 (2011) 613 326 377 406 435 554 573 1960
2019-10-11 13:30 3.54 568 2110 (2010) 322 (2011) 613 326 377 406 435 554 573 1960
2019-10-11 12:30 3.55 573 2110 (2010) 322 (2011) 613 326 377 406 435 554 573 1960
2019-10-11 11:30 3.55 573 2110 (2010) 322 (2011) 613 326 377 406 435 554 573 1960
2019-10-11 10:30 3.55 573 2110 (2010) 322 (2011) 613 326 377 406 435 554 573 1960
2019-10-11 09:30 3.55 573 2110 (2010) 322 (2011) 613 326 377 406 435 554 573 1960
2019-10-11 08:30 3.55 573 2110 (2010) 322 (2011) 613 326 377 406 435 554 573 1960
2019-10-11 07:30 3.54 568 2110 (2010) 322 (2011) 613 326 377 406 435 554 573 1960
2019-10-11 06:30 3.53 562 2110 (2010) 322 (2011) 613 326 377 406 435 554 573 1960
2019-10-11 05:30 3.51 552 2110 (2010) 322 (2011) 613 326 377 406 435 554 573 1960
2019-10-11 04:30 3.51 552 2110 (2010) 322 (2011) 613 326 377 406 435 554 573 1960
2019-10-11 03:30 3.51 552 2110 (2010) 322 (2011) 613 326 377 406 435 554 573 1960
2019-10-11 02:30 3.50 547 2110 (2010) 322 (2011) 613 326 377 406 435 554 573 1960
2019-10-11 01:30 3.50 547 2110 (2010) 322 (2011) 613 326 377 406 435 554 573 1960
2019-10-11 00:30 3.50 547 2110 (2010) 322 (2011) 613 326 377 406 435 554 573 1960
2019-10-10 23:30 3.50 547 873 (2010) 328 (2011) 501 329 355 398 454 583 590 845
2019-10-10 22:30 3.49 542 873 (2010) 328 (2011) 501 329 355 398 454 583 590 845
2019-10-10 21:30 3.49 542 873 (2010) 328 (2011) 501 329 355 398 454 583 590 845
2019-10-10 20:30 3.49 542 873 (2010) 328 (2011) 501 329 355 398 454 583 590 845
2019-10-10 19:30 3.48 537 873 (2010) 328 (2011) 501 329 355 398 454 583 590 845
2019-10-10 18:30 3.48 537 873 (2010) 328 (2011) 501 329 355 398 454 583 590 845
2019-10-10 17:30 3.48 537 873 (2010) 328 (2011) 501 329 355 398 454 583 590 845
2019-10-10 16:30 3.48 537 873 (2010) 328 (2011) 501 329 355 398 454 583 590 845
2019-10-10 15:30 3.48 537 873 (2010) 328 (2011) 501 329 355 398 454 583 590 845
2019-10-10 14:30 3.48 537 873 (2010) 328 (2011) 501 329 355 398 454 583 590 845
2019-10-10 13:30 3.48 537 873 (2010) 328 (2011) 501 329 355 398 454 583 590 845
2019-10-10 12:30 3.48 537 873 (2010) 328 (2011) 501 329 355 398 454 583 590 845
2019-10-10 11:30 3.48 537 873 (2010) 328 (2011) 501 329 355 398 454 583 590 845
2019-10-10 10:30 3.48 537 873 (2010) 328 (2011) 501 329 355 398 454 583 590 845
2019-10-10 09:30 3.49 542 873 (2010) 328 (2011) 501 329 355 398 454 583 590 845
2019-10-10 08:30 3.49 542 873 (2010) 328 (2011) 501 329 355 398 454 583 590 845
2019-10-10 07:30 3.49 542 873 (2010) 328 (2011) 501 329 355 398 454 583 590 845
2019-10-10 06:30 3.49 542 873 (2010) 328 (2011) 501 329 355 398 454 583 590 845
2019-10-10 05:30 3.50 547 873 (2010) 328 (2011) 501 329 355 398 454 583 590 845
2019-10-10 04:30 3.51 552 873 (2010) 328 (2011) 501 329 355 398 454 583 590 845
2019-10-10 03:30 3.51 552 873 (2010) 328 (2011) 501 329 355 398 454 583 590 845
2019-10-10 02:30 3.52 557 873 (2010) 328 (2011) 501 329 355 398 454 583 590 845
2019-10-10 01:30 3.54 568 873 (2010) 328 (2011) 501 329 355 398 454 583 590 845
2019-10-10 00:30 3.55 573 873 (2010) 328 (2011) 501 329 355 398 454 583 590 845
2019-10-09 23:30 3.56 578 943 (2010) 343 (2011) 517 344 363 400 434 610 620 911
2019-10-09 22:30 3.58 589 943 (2010) 343 (2011) 517 344 363 400 434 610 620 911
2019-10-09 21:30 3.60 599 943 (2010) 343 (2011) 517 344 363 400 434 610 620 911
2019-10-09 20:30 3.63 615 943 (2010) 343 (2011) 517 344 363 400 434 610 620 911
2019-10-09 19:30 3.65 626 943 (2010) 343 (2011) 517 344 363 400 434 610 620 911
2019-10-09 18:30 3.68 642 943 (2010) 343 (2011) 517 344 363 400 434 610 620 911
2019-10-09 17:30 3.72 664 943 (2010) 343 (2011) 517 344 363 400 434 610 620 911
2019-10-09 16:30 3.74 675 943 (2010) 343 (2011) 517 344 363 400 434 610 620 911
2019-10-09 15:30 3.77 692 943 (2010) 343 (2011) 517 344 363 400 434 610 620 911
2019-10-09 14:30 3.78 697 943 (2010) 343 (2011) 517 344 363 400 434 610 620 911
2019-10-09 13:30 3.78 697 943 (2010) 343 (2011) 517 344 363 400 434 610 620 911
2019-10-09 12:30 3.78 697 943 (2010) 343 (2011) 517 344 363 400 434 610 620 911
2019-10-09 11:30 3.77 692 943 (2010) 343 (2011) 517 344 363 400 434 610 620 911
2019-10-09 10:30 3.77 692 943 (2010) 343 (2011) 517 344 363 400 434 610 620 911
2019-10-09 09:30 3.78 697 943 (2010) 343 (2011) 517 344 363 400 434 610 620 911
2019-10-09 08:30 3.77 692 943 (2010) 343 (2011) 517 344 363 400 434 610 620 911
2019-10-09 07:30 3.77 692 943 (2010) 343 (2011) 517 344 363 400 434 610 620 911
2019-10-09 06:30 3.76 686 943 (2010) 343 (2011) 517 344 363 400 434 610 620 911
2019-10-09 05:30 3.77 692 943 (2010) 343 (2011) 517 344 363 400 434 610 620 911
2019-10-09 04:30 3.77 692 943 (2010) 343 (2011) 517 344 363 400 434 610 620 911
2019-10-09 03:30 3.77 692 943 (2010) 343 (2011) 517 344 363 400 434 610 620 911
2019-10-09 02:30 3.77 692 943 (2010) 343 (2011) 517 344 363 400 434 610 620 911
2019-10-09 01:30 3.77 692 943 (2010) 343 (2011) 517 344 363 400 434 610 620 911
2019-10-09 00:30 3.77 692 943 (2010) 343 (2011) 517 344 363 400 434 610 620 911
2019-10-08 23:30 3.77 692 655 (2015) 373 (2017) 506 375 399 411 469 616 639 654
2019-10-08 22:30 3.77 692 655 (2015) 373 (2017) 506 375 399 411 469 616 639 654
2019-10-08 21:30 3.77 692 655 (2015) 373 (2017) 506 375 399 411 469 616 639 654
2019-10-08 20:30 3.77 692 655 (2015) 373 (2017) 506 375 399 411 469 616 639 654
2019-10-08 19:30 3.77 692 655 (2015) 373 (2017) 506 375 399 411 469 616 639 654
2019-10-08 18:30 3.77 692 655 (2015) 373 (2017) 506 375 399 411 469 616 639 654
2019-10-08 17:30 3.77 692 655 (2015) 373 (2017) 506 375 399 411 469 616 639 654
2019-10-08 16:30 3.77 692 655 (2015) 373 (2017) 506 375 399 411 469 616 639 654
2019-10-08 15:30 3.78 697 655 (2015) 373 (2017) 506 375 399 411 469 616 639 654
2019-10-08 14:30 3.77 692 655 (2015) 373 (2017) 506 375 399 411 469 616 639 654
2019-10-08 13:30 3.77 692 655 (2015) 373 (2017) 506 375 399 411 469 616 639 654
2019-10-08 12:30 3.77 692 655 (2015) 373 (2017) 506 375 399 411 469 616 639 654
2019-10-08 11:30 3.77 692 655 (2015) 373 (2017) 506 375 399 411 469 616 639 654
2019-10-08 10:30 3.76 686 655 (2015) 373 (2017) 506 375 399 411 469 616 639 654
2019-10-08 09:30 3.76 686 655 (2015) 373 (2017) 506 375 399 411 469 616 639 654
2019-10-08 08:30 3.76 686 655 (2015) 373 (2017) 506 375 399 411 469 616 639 654
2019-10-08 07:30 3.75 680 655 (2015) 373 (2017) 506 375 399 411 469 616 639 654
2019-10-08 06:30 3.75 680 655 (2015) 373 (2017) 506 375 399 411 469 616 639 654
2019-10-08 05:30 3.75 680 655 (2015) 373 (2017) 506 375 399 411 469 616 639 654
2019-10-08 04:30 3.74 675 655 (2015) 373 (2017) 506 375 399 411 469 616 639 654
2019-10-08 03:30 3.75 680 655 (2015) 373 (2017) 506 375 399 411 469 616 639 654
2019-10-08 02:30 3.74 675 655 (2015) 373 (2017) 506 375 399 411 469 616 639 654
2019-10-08 01:30 3.74 675 655 (2015) 373 (2017) 506 375 399 411 469 616 639 654
2019-10-08 00:30 3.73 669 655 (2015) 373 (2017) 506 375 399 411 469 616 639 654
2019-10-07 23:30 3.72 664 636 (2015) 333 (2016) 490 341 419 428 469 604 607 633
2019-10-07 22:30 3.71 658 636 (2015) 333 (2016) 490 341 419 428 469 604 607 633
2019-10-07 21:30 3.70 653 636 (2015) 333 (2016) 490 341 419 428 469 604 607 633
2019-10-07 20:30 3.69 647 636 (2015) 333 (2016) 490 341 419 428 469 604 607 633
2019-10-07 19:30 3.67 637 636 (2015) 333 (2016) 490 341 419 428 469 604 607 633
2019-10-07 18:30 3.65 626 636 (2015) 333 (2016) 490 341 419 428 469 604 607 633
2019-10-07 17:30 3.63 615 636 (2015) 333 (2016) 490 341 419 428 469 604 607 633
2019-10-07 16:30 3.61 604 636 (2015) 333 (2016) 490 341 419 428 469 604 607 633
2019-10-07 15:30 3.59 594 636 (2015) 333 (2016) 490 341 419 428 469 604 607 633
2019-10-07 14:30 3.58 589 636 (2015) 333 (2016) 490 341 419 428 469 604 607 633
2019-10-07 13:30 3.59 594 636 (2015) 333 (2016) 490 341 419 428 469 604 607 633
2019-10-07 12:30 3.59 594 636 (2015) 333 (2016) 490 341 419 428 469 604 607 633
2019-10-07 11:30 3.59 594 636 (2015) 333 (2016) 490 341 419 428 469 604 607 633
2019-10-07 10:30 3.59 594 636 (2015) 333 (2016) 490 341 419 428 469 604 607 633
2019-10-07 09:30 3.59 594 636 (2015) 333 (2016) 490 341 419 428 469 604 607 633
2019-10-07 08:30 3.59 594 636 (2015) 333 (2016) 490 341 419 428 469 604 607 633
2019-10-07 07:30 3.60 599 636 (2015) 333 (2016) 490 341 419 428 469 604 607 633
2019-10-07 06:30 3.60 599 636 (2015) 333 (2016) 490 341 419 428 469 604 607 633
2019-10-07 05:30 3.61 604 636 (2015) 333 (2016) 490 341 419 428 469 604 607 633
2019-10-07 04:30 3.61 604 636 (2015) 333 (2016) 490 341 419 428 469 604 607 633
2019-10-07 03:30 3.61 604 636 (2015) 333 (2016) 490 341 419 428 469 604 607 633
2019-10-07 02:30 3.61 604 636 (2015) 333 (2016) 490 341 419 428 469 604 607 633
2019-10-07 01:30 3.60 599 636 (2015) 333 (2016) 490 341 419 428 469 604 607 633
2019-10-07 00:30 3.61 604 636 (2015) 333 (2016) 490 341 419 428 469 604 607 633

A total of 171 rows are displayed for years 2009 through 2018.

Trips for Black River (Missouri), Williamsville (07062575)

DateStartEndDistanceConditionDischargeHeightFishingDetails

A total of 0 rows are displayed.

Condition Descriptions

Fishing Conditions

Fish Species

Notes

Classic Trip List

The classic River Trips application is still available for use. It is updated with the new system using a data retrofit. It is no longer maintained. The original River Trips application is no longer updated (as of 1 Dec 2016) but can be checked for errors or for the condition of the data before it was converted to the new system.